Terminal Aerodrome Forecast
Issued by NWS Twin Cities, MN

Home | Current Version | Previous Version | Graphics & Text | Print | Product List | Glossary On
Versions: 1 2 3 4 5 6 7 8 9 10 11 12 13 14 15 16 17
754
FTUS43 KMPX 242339
TAFEAU
TAF
KEAU 242339Z 2500/2524 30004KT P6SM BKN150
     FM251600 12009KT 5SM -SHRA VCTS OVC050CB
     FM252000 14012KT P6SM OVC050=

USA.gov is the U.S. government's official web portal to all federal, state and local government web resources and services.